createdAt,value
2022-09-29T00:00:10.233Z,7.7
2022-09-29T00:01:10.356Z,7.7
2022-09-29T00:02:10.679Z,7.7
2022-09-29T00:03:11.088Z,7.7
2022-09-29T00:04:11.339Z,7.7
2022-09-29T00:05:11.474Z,7.8
2022-09-29T00:06:11.597Z,7.8
2022-09-29T00:07:11.723Z,7.8
2022-09-29T00:08:11.851Z,7.8
2022-09-29T00:09:11.979Z,7.8
2022-09-29T00:10:12.115Z,7.8
2022-09-29T00:11:12.247Z,7.8
2022-09-29T00:12:12.369Z,7.8
2022-09-29T00:13:12.495Z,7.8
2022-09-29T00:14:12.610Z,7.8
2022-09-29T00:15:12.736Z,7.8
2022-09-29T00:16:13.036Z,7.8
2022-09-29T00:17:13.235Z,7.8
2022-09-29T00:18:15.142Z,7.8
2022-09-29T00:19:15.303Z,7.8
2022-09-29T00:20:15.429Z,7.8
2022-09-29T00:21:15.558Z,7.8
2022-09-29T00:22:15.689Z,7.8
2022-09-29T00:23:15.811Z,7.8
2022-09-29T00:24:15.946Z,7.8
2022-09-29T00:25:16.075Z,7.8
2022-09-29T00:26:16.196Z,7.8
2022-09-29T00:27:16.324Z,7.8
2022-09-29T00:28:16.440Z,7.8
2022-09-29T00:29:16.584Z,7.8
2022-09-29T00:30:16.710Z,7.8
2022-09-29T00:31:16.918Z,7.8
2022-09-29T00:32:17.235Z,7.8
2022-09-29T00:33:17.372Z,7.8
2022-09-29T00:34:17.704Z,7.8
2022-09-29T00:35:17.910Z,7.8
2022-09-29T00:36:18.045Z,7.8
2022-09-29T00:37:18.173Z,7.8
2022-09-29T00:38:18.301Z,7.8
2022-09-29T00:39:18.434Z,7.8
2022-09-29T00:40:18.714Z,7.8
2022-09-29T00:41:18.963Z,7.8
2022-09-29T00:42:19.096Z,7.8
2022-09-29T00:43:19.227Z,7.8
2022-09-29T00:44:19.622Z,7.8
2022-09-29T00:45:19.930Z,7.8
2022-09-29T00:46:20.065Z,7.8
2022-09-29T00:47:20.190Z,7.8
2022-09-29T00:48:20.326Z,7.8
2022-09-29T00:49:20.449Z,7.8
2022-09-29T00:50:20.573Z,7.8
2022-09-29T00:51:20.705Z,7.8
2022-09-29T00:52:21.204Z,7.8
2022-09-29T00:53:22.046Z,7.8
2022-09-29T00:54:22.186Z,7.8
2022-09-29T00:55:22.312Z,7.9
2022-09-29T00:56:22.434Z,7.9
2022-09-29T00:57:22.562Z,7.9
2022-09-29T00:58:22.686Z,7.9
2022-09-29T00:59:22.813Z,7.9
2022-09-29T01:00:22.957Z,7.9
2022-09-29T01:01:23.333Z,7.9
2022-09-29T01:02:23.738Z,7.9
2022-09-29T01:03:23.985Z,7.9
2022-09-29T01:04:24.111Z,7.9
2022-09-29T01:05:24.360Z,7.9
2022-09-29T01:06:24.503Z,7.9
2022-09-29T01:07:24.634Z,7.9
2022-09-29T01:08:24.758Z,7.9
2022-09-29T01:09:24.884Z,7.9
2022-09-29T01:10:25.009Z,7.9
2022-09-29T01:11:25.255Z,7.9
2022-09-29T01:12:25.474Z,7.9
2022-09-29T01:13:25.600Z,7.9
2022-09-29T01:14:25.731Z,7.9
2022-09-29T01:15:25.856Z,7.9
2022-09-29T01:16:26.058Z,7.9
2022-09-29T01:17:26.308Z,7.9
2022-09-29T01:18:26.542Z,7.9
2022-09-29T01:19:26.965Z,7.9
2022-09-29T01:20:27.088Z,7.9
2022-09-29T01:21:27.218Z,7.9
2022-09-29T01:22:27.357Z,7.9
2022-09-29T01:23:27.496Z,7.9
2022-09-29T01:24:27.622Z,7.9
2022-09-29T01:25:27.752Z,8
2022-09-29T01:26:27.890Z,8
2022-09-29T01:27:28.013Z,8
2022-09-29T01:28:28.141Z,8
2022-09-29T01:29:28.267Z,8
2022-09-29T01:30:28.393Z,8
2022-09-29T01:31:28.635Z,8
2022-09-29T01:32:28.855Z,8
2022-09-29T01:33:28.977Z,8
2022-09-29T01:34:29.104Z,8
2022-09-29T01:35:29.227Z,8
2022-09-29T01:36:29.354Z,8
2022-09-29T01:37:29.480Z,8
2022-09-29T01:38:29.603Z,8
2022-09-29T01:39:29.728Z,8
2022-09-29T01:40:29.996Z,8
2022-09-29T01:41:30.224Z,8
2022-09-29T01:42:30.353Z,8
2022-09-29T01:43:30.481Z,8
2022-09-29T01:44:30.600Z,8
2022-09-29T01:45:30.911Z,8.1
2022-09-29T01:46:31.178Z,8.1
2022-09-29T01:47:31.313Z,8.1
2022-09-29T01:48:31.452Z,8.1
2022-09-29T01:49:31.578Z,8.1
2022-09-29T01:50:31.701Z,8.1
2022-09-29T01:51:31.823Z,8.1
2022-09-29T01:52:31.945Z,8.1
2022-09-29T01:53:32.071Z,8.1
2022-09-29T01:54:32.200Z,8.1
2022-09-29T01:55:32.326Z,8.1
2022-09-29T01:56:32.469Z,8.1
2022-09-29T01:57:32.638Z,8.1
2022-09-29T01:58:32.761Z,8.1
2022-09-29T01:59:32.883Z,8.1
2022-09-29T02:00:33.112Z,8.1
2022-09-29T02:01:33.391Z,8.1
2022-09-29T02:02:33.727Z,8.1
2022-09-29T02:03:34.012Z,8.1
2022-09-29T02:04:34.141Z,8.1
2022-09-29T02:05:34.269Z,8.1
2022-09-29T02:06:34.398Z,8.1
2022-09-29T02:07:34.526Z,8.1
2022-09-29T02:08:34.658Z,8.1
2022-09-29T02:09:34.782Z,8.1
2022-09-29T02:10:34.906Z,8.1
2022-09-29T02:11:35.027Z,8.1
2022-09-29T02:12:35.154Z,8.1
2022-09-29T02:13:35.280Z,8.1
2022-09-29T02:14:35.427Z,8.1
2022-09-29T02:15:35.569Z,8.1
2022-09-29T02:16:35.814Z,8.1
2022-09-29T02:17:36.065Z,8.1
2022-09-29T02:18:36.195Z,8.1
2022-09-29T02:19:36.321Z,8.1
2022-09-29T02:20:36.453Z,8.1
2022-09-29T02:21:36.582Z,8.1
2022-09-29T02:22:36.710Z,8.1
2022-09-29T02:23:36.833Z,8.1
2022-09-29T02:24:36.966Z,8.1
2022-09-29T02:25:37.095Z,8.1
2022-09-29T02:26:37.222Z,8.1
2022-09-29T02:27:37.351Z,8.1
2022-09-29T02:28:37.479Z,8.1
2022-09-29T02:29:37.613Z,8.1
2022-09-29T02:30:37.737Z,8.1
2022-09-29T02:31:38.080Z,8.1
2022-09-29T02:32:38.300Z,8.1
2022-09-29T02:33:38.427Z,8.1
2022-09-29T02:34:38.560Z,8.1
2022-09-29T02:35:38.687Z,8
2022-09-29T02:36:38.823Z,8
2022-09-29T02:37:38.954Z,8
2022-09-29T02:38:39.075Z,8
2022-09-29T02:39:39.198Z,8
2022-09-29T02:40:39.396Z,8
2022-09-29T02:41:39.702Z,8
2022-09-29T02:42:39.837Z,8
2022-09-29T02:43:39.961Z,8
2022-09-29T02:44:40.095Z,8
2022-09-29T02:45:40.301Z,8
2022-09-29T02:46:40.494Z,8
2022-09-29T02:47:40.616Z,8
2022-09-29T02:48:40.741Z,8
2022-09-29T02:49:40.879Z,8
2022-09-29T02:50:41.015Z,8
2022-09-29T02:51:41.147Z,8
2022-09-29T02:52:41.288Z,8
2022-09-29T02:53:41.418Z,8
2022-09-29T02:54:41.542Z,8
2022-09-29T02:55:41.665Z,8
2022-09-29T02:56:41.790Z,8
2022-09-29T02:57:41.924Z,8
2022-09-29T02:58:48.220Z,8
2022-09-29T02:59:48.747Z,8
2022-09-29T03:00:48.996Z,8
2022-09-29T03:01:49.191Z,8
2022-09-29T03:02:49.324Z,8
2022-09-29T03:03:49.651Z,8
2022-09-29T03:04:49.847Z,8
2022-09-29T03:05:49.982Z,8
2022-09-29T03:06:50.103Z,8
2022-09-29T03:07:50.226Z,8
2022-09-29T03:08:50.351Z,8
2022-09-29T03:09:50.481Z,8
2022-09-29T03:10:50.610Z,8
2022-09-29T03:11:50.740Z,8
2022-09-29T03:12:50.864Z,8
2022-09-29T03:13:50.999Z,8
2022-09-29T03:14:51.127Z,8
2022-09-29T03:15:51.404Z,8
2022-09-29T03:16:51.695Z,8
2022-09-29T03:17:51.822Z,8
2022-09-29T03:18:51.949Z,8
2022-09-29T03:19:52.076Z,8
2022-09-29T03:20:52.205Z,8
2022-09-29T03:21:52.328Z,8
2022-09-29T03:22:52.456Z,8
2022-09-29T03:23:57.942Z,8
2022-09-29T03:24:58.097Z,8
2022-09-29T03:25:58.231Z,8
2022-09-29T03:26:58.370Z,8
2022-09-29T03:27:58.495Z,8
2022-09-29T03:28:58.622Z,8
2022-09-29T03:29:58.778Z,8
2022-09-29T03:30:58.920Z,8
2022-09-29T03:31:59.304Z,8
2022-09-29T03:32:59.431Z,8
2022-09-29T03:33:59.558Z,8
2022-09-29T03:34:59.685Z,8
2022-09-29T03:35:59.811Z,8
2022-09-29T03:36:59.933Z,8
2022-09-29T03:38:00.080Z,8
2022-09-29T03:39:00.221Z,8
2022-09-29T03:40:00.368Z,8
2022-09-29T03:41:00.616Z,8
2022-09-29T03:42:00.863Z,8
2022-09-29T03:43:00.999Z,8
2022-09-29T03:44:01.132Z,8
2022-09-29T03:45:01.268Z,8
2022-09-29T03:46:01.587Z,8
2022-09-29T03:47:01.899Z,8
2022-09-29T03:48:02.022Z,8
2022-09-29T03:49:02.143Z,8
2022-09-29T03:50:02.275Z,8
2022-09-29T03:51:02.423Z,8
2022-09-29T03:52:02.564Z,8
2022-09-29T03:53:02.694Z,8
2022-09-29T03:54:02.819Z,8
2022-09-29T03:55:02.947Z,8
2022-09-29T03:56:03.077Z,8
2022-09-29T03:57:03.203Z,8
2022-09-29T03:58:03.325Z,8
2022-09-29T03:59:03.447Z,8
2022-09-29T04:00:03.602Z,8
2022-09-29T04:01:03.895Z,8
2022-09-29T04:02:04.277Z,8
2022-09-29T04:03:04.515Z,8
2022-09-29T04:04:04.650Z,8
2022-09-29T04:05:04.774Z,8
2022-09-29T04:06:04.908Z,8
2022-09-29T04:07:05.037Z,8
2022-09-29T04:08:05.170Z,8
2022-09-29T04:09:05.296Z,8
2022-09-29T04:10:05.424Z,8
2022-09-29T04:11:05.568Z,8
2022-09-29T04:12:05.698Z,8
2022-09-29T04:13:05.841Z,8
2022-09-29T04:14:05.971Z,8
2022-09-29T04:15:06.098Z,8
2022-09-29T04:16:06.397Z,8
2022-09-29T04:17:06.628Z,8
2022-09-29T04:18:06.758Z,8
2022-09-29T04:19:06.885Z,8
2022-09-29T04:20:07.005Z,8
2022-09-29T04:21:07.127Z,8
2022-09-29T04:22:07.260Z,8
2022-09-29T04:23:07.403Z,8
2022-09-29T04:24:07.532Z,8
2022-09-29T04:25:07.669Z,8.1
2022-09-29T04:26:07.801Z,8.1
2022-09-29T04:27:07.928Z,8.1
2022-09-29T04:28:08.051Z,8.1
2022-09-29T04:29:08.185Z,8.1
2022-09-29T04:30:08.313Z,8.1
2022-09-29T04:31:08.592Z,8.1
2022-09-29T04:32:08.881Z,8.1
2022-09-29T04:33:09.001Z,8.1
2022-09-29T04:34:09.132Z,8.1
2022-09-29T04:35:09.278Z,8.1
2022-09-29T04:36:09.405Z,8.1
2022-09-29T04:37:09.532Z,8.1
2022-09-29T04:38:09.660Z,8.1
2022-09-29T04:39:09.788Z,8.1
2022-09-29T04:40:09.925Z,8.1
2022-09-29T04:41:10.057Z,8.1
2022-09-29T04:42:10.187Z,8.1
2022-09-29T04:43:10.315Z,8.1
2022-09-29T04:44:10.441Z,8.1
2022-09-29T04:45:10.578Z,8.1
2022-09-29T04:46:10.889Z,8.1
2022-09-29T04:47:11.180Z,8.1
2022-09-29T04:48:11.306Z,8.1
2022-09-29T04:49:11.540Z,8.1
2022-09-29T04:50:11.753Z,8.1
2022-09-29T04:51:11.889Z,8.1
2022-09-29T04:52:12.020Z,8.1
2022-09-29T04:53:12.149Z,8.1
2022-09-29T04:54:12.277Z,8.1
2022-09-29T04:55:12.409Z,8.2
2022-09-29T04:56:12.533Z,8.2
2022-09-29T04:57:12.658Z,8.2
2022-09-29T04:58:12.782Z,8.2
2022-09-29T04:59:12.910Z,8.2
2022-09-29T05:00:13.042Z,8.2
2022-09-29T05:01:13.295Z,8.2
2022-09-29T05:02:13.730Z,8.2
2022-09-29T05:03:13.984Z,8.2
2022-09-29T05:04:14.109Z,8.2
2022-09-29T05:05:14.235Z,8.2
2022-09-29T05:06:14.350Z,8.2
2022-09-29T05:07:14.474Z,8.2
2022-09-29T05:08:14.605Z,8.2
2022-09-29T05:09:14.810Z,8.2
2022-09-29T05:10:14.996Z,8.2
2022-09-29T05:11:15.130Z,8.2
2022-09-29T05:12:15.267Z,8.2
2022-09-29T05:13:15.390Z,8.2
2022-09-29T05:14:15.518Z,8.2
2022-09-29T05:15:15.649Z,8.3
2022-09-29T05:16:15.885Z,8.3
2022-09-29T05:17:16.094Z,8.3
2022-09-29T05:18:16.229Z,8.3
2022-09-29T05:19:16.348Z,8.3
2022-09-29T05:20:16.483Z,8.3
2022-09-29T05:21:29.247Z,8.3
2022-09-29T05:22:29.870Z,8.3
2022-09-29T05:23:30.012Z,8.3
2022-09-29T05:24:30.136Z,8.3
2022-09-29T05:25:30.257Z,8.3
2022-09-29T05:26:30.390Z,8.3
2022-09-29T05:27:30.527Z,8.3
2022-09-29T05:28:30.656Z,8.3
2022-09-29T05:29:30.779Z,8.3
2022-09-29T05:30:30.901Z,8.3
2022-09-29T05:31:31.158Z,8.3
2022-09-29T05:32:31.347Z,8.3
2022-09-29T05:33:31.476Z,8.3
2022-09-29T05:34:31.605Z,8.3
2022-09-29T05:35:31.730Z,8.39
2022-09-29T05:36:31.868Z,8.39
2022-09-29T05:37:31.991Z,8.39
2022-09-29T05:38:32.116Z,8.39
2022-09-29T05:39:32.238Z,8.39
2022-09-29T05:40:32.449Z,8.39
2022-09-29T05:41:32.804Z,8.39
2022-09-29T05:42:32.929Z,8.39
2022-09-29T05:43:33.049Z,8.39
2022-09-29T05:44:33.181Z,8.39
2022-09-29T05:45:33.428Z,8.39
2022-09-29T05:46:33.645Z,8.39
2022-09-29T05:47:33.787Z,8.39
2022-09-29T05:48:33.922Z,8.39
2022-09-29T05:49:34.051Z,8.39
2022-09-29T05:50:34.175Z,8.39
2022-09-29T05:51:34.299Z,8.39
2022-09-29T05:52:34.433Z,8.39
2022-09-29T05:53:34.573Z,8.39
2022-09-29T05:54:34.706Z,8.39
2022-09-29T05:55:34.828Z,8.3
2022-09-29T05:56:34.964Z,8.3
2022-09-29T05:57:35.091Z,8.3
2022-09-29T05:58:35.209Z,8.3
2022-09-29T05:59:35.335Z,8.3
2022-09-29T06:00:35.456Z,8.3
2022-09-29T06:01:35.678Z,8.3
2022-09-29T06:02:35.948Z,8.3
2022-09-29T06:03:36.154Z,8.3
2022-09-29T06:04:41.057Z,8.3
2022-09-29T06:05:41.212Z,8.2
2022-09-29T06:06:41.340Z,8.2
2022-09-29T06:07:41.464Z,8.2
2022-09-29T06:08:41.589Z,8.2
2022-09-29T06:09:41.713Z,8.2
2022-09-29T06:10:41.839Z,8.2
2022-09-29T06:11:41.966Z,8.2
2022-09-29T06:12:42.098Z,8.2
2022-09-29T06:13:42.239Z,8.2
2022-09-29T06:14:42.366Z,8.2
2022-09-29T06:15:42.495Z,8.2
2022-09-29T06:16:42.832Z,8.2
2022-09-29T06:17:43.163Z,8.2
2022-09-29T06:18:43.285Z,8.2
2022-09-29T06:19:45.114Z,8.2
2022-09-29T06:20:45.285Z,8.2
2022-09-29T06:21:45.412Z,8.2
2022-09-29T06:22:45.539Z,8.2
2022-09-29T06:23:45.676Z,8.2
2022-09-29T06:24:45.814Z,8.2
2022-09-29T06:25:45.941Z,8.1
2022-09-29T06:26:46.074Z,8.1
2022-09-29T06:27:46.204Z,8.1
2022-09-29T06:28:46.329Z,8.1
2022-09-29T06:29:46.650Z,8.1
2022-09-29T06:30:47.142Z,8.1
2022-09-29T06:31:47.421Z,8.1
2022-09-29T06:32:47.643Z,8.1
2022-09-29T06:33:47.803Z,8.1
2022-09-29T06:34:47.972Z,8.1
2022-09-29T06:35:48.102Z,8.1
2022-09-29T06:36:48.256Z,8.1
2022-09-29T06:37:48.381Z,8.1
2022-09-29T06:38:48.507Z,8.1
2022-09-29T06:39:48.638Z,8.1
2022-09-29T06:40:48.977Z,8.1
2022-09-29T06:41:49.253Z,8.1
2022-09-29T06:42:49.380Z,8.1
2022-09-29T06:43:49.511Z,8.1
2022-09-29T06:44:49.647Z,8.1
2022-09-29T06:45:49.939Z,8.2
2022-09-29T06:46:50.149Z,8.2
2022-09-29T06:47:50.281Z,8.2
2022-09-29T06:48:50.429Z,8.2
2022-09-29T06:50:20.082Z,8.2
2022-09-29T06:51:28.762Z,8.2
2022-09-29T06:53:03.656Z,8.2
2022-09-29T06:54:12.525Z,8.2
2022-09-29T06:55:12.955Z,8.2
2022-09-29T06:56:13.087Z,8.2
2022-09-29T06:57:13.241Z,8.2
2022-09-29T06:58:13.372Z,8.2
2022-09-29T06:59:13.660Z,8.2
2022-09-29T07:00:13.797Z,8.2
2022-09-29T07:01:14.011Z,8.2
2022-09-29T07:02:14.355Z,8.2
2022-09-29T07:03:14.560Z,8.2
2022-09-29T07:04:14.713Z,8.2
2022-09-29T07:05:14.854Z,8.3
2022-09-29T07:06:20.451Z,8.3
2022-09-29T07:07:21.065Z,8.3
2022-09-29T07:08:21.200Z,8.3
2022-09-29T07:09:21.586Z,8.3
2022-09-29T07:10:21.916Z,8.3
2022-09-29T07:11:22.049Z,8.3
2022-09-29T07:12:22.174Z,8.3
2022-09-29T07:13:22.315Z,8.3
2022-09-29T07:14:22.513Z,8.3
2022-09-29T07:15:23.063Z,8.39
2022-09-29T07:16:23.339Z,8.39
2022-09-29T07:17:23.626Z,8.39
2022-09-29T07:18:23.766Z,8.39
2022-09-29T07:19:23.903Z,8.39
2022-09-29T07:20:24.154Z,8.39
2022-09-29T07:21:24.316Z,8.39
2022-09-29T07:22:24.459Z,8.39
2022-09-29T07:23:24.585Z,8.39
2022-09-29T07:24:24.715Z,8.39
2022-09-29T07:25:52.215Z,8.39
2022-09-29T07:26:52.891Z,8.5
2022-09-29T07:27:53.032Z,8.5
2022-09-29T07:28:53.166Z,8.5
2022-09-29T07:30:04.434Z,8.5
2022-09-29T07:31:15.863Z,8.5
2022-09-29T07:32:28.545Z,8.5
2022-09-29T07:33:39.394Z,8.5
2022-09-29T07:34:39.845Z,8.5
2022-09-29T07:35:40.451Z,8.5
2022-09-29T07:36:40.583Z,8.5
2022-09-29T07:37:40.705Z,8.5
2022-09-29T07:38:40.831Z,8.5
2022-09-29T07:39:40.957Z,8.5
2022-09-29T07:40:41.227Z,8.5
2022-09-29T07:41:41.522Z,8.5
2022-09-29T07:42:41.648Z,8.5
2022-09-29T07:43:41.777Z,8.5
2022-09-29T07:44:41.916Z,8.5
2022-09-29T07:45:42.150Z,8.6
2022-09-29T07:46:42.377Z,8.6
2022-09-29T07:47:42.541Z,8.6
2022-09-29T07:48:42.664Z,8.6
2022-09-29T07:49:42.788Z,8.6
2022-09-29T07:50:42.910Z,8.6
2022-09-29T07:51:43.034Z,8.6
2022-09-29T07:52:43.160Z,8.6
2022-09-29T07:53:43.285Z,8.6
2022-09-29T07:54:43.424Z,8.6
2022-09-29T07:55:43.554Z,8.7
2022-09-29T07:56:43.684Z,8.7
2022-09-29T07:57:43.822Z,8.7
2022-09-29T07:58:43.950Z,8.7
2022-09-29T07:59:53.257Z,8.7
2022-09-29T08:00:53.747Z,8.8
2022-09-29T08:01:54.032Z,8.8
2022-09-29T08:02:54.232Z,8.8
2022-09-29T08:03:54.486Z,8.8
2022-09-29T08:05:02.319Z,8.8
2022-09-29T08:06:07.782Z,8.89
2022-09-29T08:07:07.934Z,8.89
2022-09-29T08:08:08.079Z,8.89
2022-09-29T08:09:08.214Z,8.89
2022-09-29T08:10:17.766Z,8.89
2022-09-29T08:11:31.399Z,9
2022-09-29T08:12:44.401Z,9
2022-09-29T08:13:44.794Z,9
2022-09-29T08:14:44.916Z,9
2022-09-29T08:15:45.045Z,9
2022-09-29T08:16:45.394Z,9
2022-09-29T08:17:45.650Z,9
2022-09-29T08:18:45.787Z,9
2022-09-29T08:19:45.915Z,9
2022-09-29T08:20:46.034Z,9
2022-09-29T08:21:46.154Z,9
2022-09-29T08:22:46.285Z,9
2022-09-29T08:23:46.505Z,9
2022-09-29T08:24:46.628Z,9
2022-09-29T08:26:01.038Z,9.1
2022-09-29T08:27:18.484Z,9.2
2022-09-29T08:28:32.192Z,9.2
2022-09-29T08:29:46.513Z,9.2
2022-09-29T08:30:47.123Z,9.2
2022-09-29T08:31:47.524Z,9.2
2022-09-29T08:32:47.819Z,9.2
2022-09-29T08:33:47.947Z,9.2
2022-09-29T08:34:48.076Z,9.2
2022-09-29T08:35:48.198Z,9.2
2022-09-29T08:36:48.338Z,9.2
2022-09-29T08:37:48.467Z,9.2
2022-09-29T08:38:48.595Z,9.2
2022-09-29T08:39:48.718Z,9.2
2022-09-29T08:40:49.018Z,9.2
2022-09-29T08:41:49.202Z,9.2
2022-09-29T08:42:49.527Z,9.2
2022-09-29T08:43:49.655Z,9.2
2022-09-29T08:44:49.783Z,9.2
2022-09-29T08:46:00.991Z,9.3
2022-09-29T08:47:11.147Z,9.3
2022-09-29T08:48:23.622Z,9.39
2022-09-29T08:49:33.524Z,9.39
2022-09-29T08:50:33.859Z,9.39
2022-09-29T08:51:43.055Z,9.39
2022-09-29T08:52:52.827Z,9.39
2022-09-29T08:54:03.891Z,9.5
2022-09-29T08:55:20.873Z,9.5
2022-09-29T08:56:22.458Z,9.5
2022-09-29T08:57:22.590Z,9.5
2022-09-29T08:58:22.734Z,9.5
2022-09-29T08:59:22.862Z,9.5
2022-09-29T09:00:22.987Z,9.5
2022-09-29T09:01:23.277Z,9.5
2022-09-29T09:02:23.737Z,9.5
2022-09-29T09:03:23.953Z,9.5
2022-09-29T09:04:24.074Z,9.5
2022-09-29T09:05:24.203Z,9.7
2022-09-29T09:06:26.431Z,9.7
2022-09-29T09:07:26.582Z,9.7
2022-09-29T09:08:26.849Z,9.7
2022-09-29T09:09:27.051Z,9.7
2022-09-29T09:10:27.182Z,9.7
2022-09-29T09:11:27.314Z,9.7
2022-09-29T09:12:27.433Z,9.7
2022-09-29T09:13:27.557Z,9.7
2022-09-29T09:14:27.684Z,9.7
2022-09-29T09:15:27.813Z,9.8
2022-09-29T09:16:28.020Z,9.8
2022-09-29T09:17:28.199Z,9.8
2022-09-29T09:18:28.326Z,9.8
2022-09-29T09:19:28.461Z,9.8
2022-09-29T09:20:28.585Z,9.8
2022-09-29T09:21:28.714Z,9.8
2022-09-29T09:22:28.986Z,9.8
2022-09-29T09:23:29.256Z,9.8
2022-09-29T09:24:29.391Z,9.8
2022-09-29T09:25:29.527Z,10
2022-09-29T09:26:29.679Z,10
2022-09-29T09:27:29.813Z,10
2022-09-29T09:28:29.947Z,10
2022-09-29T09:29:37.566Z,10
2022-09-29T09:30:38.576Z,10.2
2022-09-29T09:31:38.829Z,10.2
2022-09-29T09:32:38.961Z,10.2
2022-09-29T09:33:39.103Z,10.2
2022-09-29T09:34:45.257Z,10.2
2022-09-29T09:35:59.258Z,10.3
2022-09-29T09:37:08.704Z,10.3
2022-09-29T09:38:08.980Z,10.3
2022-09-29T09:39:09.103Z,10.3
2022-09-29T09:40:09.236Z,10.3
2022-09-29T09:41:09.366Z,10.3
2022-09-29T09:42:09.492Z,10.3
2022-09-29T09:43:09.619Z,10.3
2022-09-29T09:44:09.748Z,10.3
2022-09-29T09:45:09.890Z,10.4
2022-09-29T09:46:10.116Z,10.4
2022-09-29T09:47:10.332Z,10.4
2022-09-29T09:48:10.471Z,10.4
2022-09-29T09:49:10.597Z,10.4
2022-09-29T09:50:10.727Z,10.4
2022-09-29T09:51:10.874Z,10.4
2022-09-29T09:52:17.389Z,10.4
2022-09-29T09:53:17.521Z,10.4
2022-09-29T09:54:17.789Z,10.4
2022-09-29T09:55:18.060Z,10.5
2022-09-29T09:56:18.194Z,10.5
2022-09-29T09:57:18.318Z,10.5
2022-09-29T09:58:18.453Z,10.5
2022-09-29T09:59:18.705Z,10.5
2022-09-29T10:00:18.843Z,10.5
2022-09-29T10:01:19.153Z,10.5
2022-09-29T10:02:19.531Z,10.5
2022-09-29T10:03:19.824Z,10.5
2022-09-29T10:04:19.959Z,10.5
2022-09-29T10:05:20.086Z,10.6
2022-09-29T10:06:20.208Z,10.6
2022-09-29T10:07:20.332Z,10.6
2022-09-29T10:08:20.465Z,10.6
2022-09-29T10:09:21.222Z,10.6
2022-09-29T10:10:21.895Z,10.6
2022-09-29T10:11:22.026Z,10.6
2022-09-29T10:12:22.156Z,10.6
2022-09-29T10:13:22.326Z,10.6
2022-09-29T10:14:22.491Z,10.6
2022-09-29T10:15:22.655Z,10.8
2022-09-29T10:16:22.834Z,10.8
2022-09-29T10:17:23.022Z,10.8
2022-09-29T10:18:23.148Z,10.8
2022-09-29T10:19:23.273Z,10.8
2022-09-29T10:20:23.395Z,10.8
2022-09-29T10:21:23.551Z,10.8
2022-09-29T10:22:23.702Z,10.8
2022-09-29T10:23:23.828Z,10.8
2022-09-29T10:24:24.170Z,10.8
2022-09-29T10:25:24.315Z,11.2
2022-09-29T10:26:24.451Z,11.2
2022-09-29T10:27:24.572Z,11.2
2022-09-29T10:28:24.698Z,11.2
2022-09-29T10:29:24.824Z,11.2
2022-09-29T10:30:25.063Z,11.2
2022-09-29T10:31:25.269Z,11.2
2022-09-29T10:32:25.397Z,11.2
2022-09-29T10:33:25.516Z,11.2
2022-09-29T10:34:25.634Z,11.2
2022-09-29T10:35:25.767Z,11.5
2022-09-29T10:36:25.893Z,11.5
2022-09-29T10:37:26.020Z,11.5
2022-09-29T10:38:26.148Z,11.5
2022-09-29T10:39:26.278Z,11.5
2022-09-29T10:40:26.414Z,11.5
2022-09-29T10:41:26.542Z,11.5
2022-09-29T10:42:26.666Z,11.5
2022-09-29T10:43:26.789Z,11.5
2022-09-29T10:44:26.996Z,11.5
2022-09-29T10:45:27.187Z,12
2022-09-29T10:46:27.448Z,12
2022-09-29T10:47:27.708Z,12
2022-09-29T10:48:27.850Z,12
2022-09-29T10:49:27.983Z,12
2022-09-29T10:50:28.992Z,12
2022-09-29T10:51:35.189Z,12.3
2022-09-29T10:52:35.312Z,12.3
2022-09-29T10:53:35.442Z,12.3
2022-09-29T10:54:35.572Z,12.3
2022-09-29T10:55:35.698Z,12.5
2022-09-29T10:56:35.828Z,12.5
2022-09-29T10:57:35.956Z,12.5
2022-09-29T10:59:03.135Z,12.5
2022-09-29T11:00:06.231Z,12.7
2022-09-29T11:01:06.440Z,12.7
2022-09-29T11:02:06.746Z,12.7
2022-09-29T11:03:06.928Z,12.7
2022-09-29T11:04:07.071Z,12.7
2022-09-29T11:05:07.207Z,12.9
2022-09-29T11:06:07.343Z,12.9
2022-09-29T11:07:07.464Z,12.9
2022-09-29T11:08:07.586Z,12.9
2022-09-29T11:09:07.811Z,12.9
2022-09-29T11:10:08.154Z,12.9
2022-09-29T11:11:08.359Z,12.9
2022-09-29T11:12:09.675Z,12.9
2022-09-29T11:13:09.800Z,12.9
2022-09-29T11:14:09.929Z,12.9
2022-09-29T11:15:10.055Z,13
2022-09-29T11:16:10.185Z,13
2022-09-29T11:17:10.327Z,13
2022-09-29T11:18:12.542Z,13
2022-09-29T11:19:12.902Z,13
2022-09-29T11:20:13.166Z,13
2022-09-29T11:21:13.296Z,13
2022-09-29T11:22:13.424Z,13
2022-09-29T11:23:13.558Z,13
2022-09-29T11:24:13.702Z,13
2022-09-29T11:25:13.827Z,13.1
2022-09-29T11:26:13.972Z,13.1
2022-09-29T11:27:14.131Z,13.1
2022-09-29T11:28:14.257Z,13.1
2022-09-29T11:29:14.384Z,13.1
2022-09-29T11:30:14.517Z,13.1
2022-09-29T11:31:14.642Z,13.1
2022-09-29T11:32:14.773Z,13.1
2022-09-29T11:33:15.040Z,13.1
2022-09-29T11:34:15.319Z,13.1
2022-09-29T11:35:15.446Z,13.7
2022-09-29T11:36:15.575Z,13.7
2022-09-29T11:37:15.733Z,13.7
2022-09-29T11:38:15.862Z,13.7
2022-09-29T11:39:16.198Z,13.7
2022-09-29T11:40:16.408Z,13.7
2022-09-29T11:41:16.549Z,13.7
2022-09-29T11:42:16.681Z,13.7
2022-09-29T11:43:16.811Z,13.7
2022-09-29T11:44:17.091Z,13.7
2022-09-29T11:45:23.384Z,14.6
2022-09-29T11:46:23.592Z,14.7
2022-09-29T11:47:23.772Z,14.7
2022-09-29T11:48:29.974Z,14.7
2022-09-29T11:49:30.984Z,14.9
2022-09-29T11:50:31.111Z,14.9
2022-09-29T11:51:31.236Z,14.9
2022-09-29T11:52:31.361Z,14.9
2022-09-29T11:53:31.490Z,14.9
2022-09-29T11:54:31.638Z,14.9
2022-09-29T11:55:31.778Z,15.4
2022-09-29T11:56:31.986Z,15.4
2022-09-29T11:57:32.182Z,15.4
2022-09-29T11:58:32.336Z,15.4
2022-09-29T11:59:32.488Z,15.4
2022-09-29T12:00:32.612Z,15.4
2022-09-29T12:01:32.740Z,15.4
2022-09-29T12:02:33.105Z,15.4
2022-09-29T12:03:33.520Z,15.4
2022-09-29T12:04:33.645Z,15.4
2022-09-29T12:05:33.781Z,15.9
2022-09-29T12:06:33.907Z,15.9
2022-09-29T12:07:34.052Z,15.9
2022-09-29T12:08:34.177Z,15.9
2022-09-29T12:09:34.459Z,15.9
2022-09-29T12:10:34.814Z,15.9
2022-09-29T12:12:18.688Z,15.9
2022-09-29T12:13:24.173Z,16.29
2022-09-29T12:14:24.327Z,16.29
2022-09-29T12:15:26.662Z,16.4
2022-09-29T12:16:27.004Z,16.4
2022-09-29T12:17:27.208Z,16.4
2022-09-29T12:18:27.337Z,16.4
2022-09-29T12:19:27.468Z,16.4
2022-09-29T12:20:27.596Z,16.4
2022-09-29T12:21:27.731Z,16.4
2022-09-29T12:22:27.872Z,16.4
2022-09-29T12:23:28.013Z,16.4
2022-09-29T12:24:28.144Z,16.4
2022-09-29T12:25:28.269Z,16.5
2022-09-29T12:26:28.392Z,16.5
2022-09-29T12:27:28.519Z,16.5
2022-09-29T12:28:28.657Z,16.5
2022-09-29T12:29:28.784Z,16.5
2022-09-29T12:30:28.917Z,16.5
2022-09-29T12:31:29.049Z,16.5
2022-09-29T12:32:29.180Z,16.5
2022-09-29T12:33:29.312Z,16.5
2022-09-29T12:34:29.435Z,16.5
2022-09-29T12:35:29.565Z,16.4
2022-09-29T12:36:29.720Z,16.4
2022-09-29T12:37:29.854Z,16.4
2022-09-29T12:38:29.996Z,16.4
2022-09-29T12:39:30.133Z,16.4
2022-09-29T12:40:30.259Z,16.4
2022-09-29T12:41:30.418Z,16.4
2022-09-29T12:42:30.579Z,16.4
2022-09-29T12:43:30.724Z,16.4
2022-09-29T12:44:30.956Z,16.4
2022-09-29T12:45:35.487Z,16.2
2022-09-29T12:46:35.797Z,16.1
2022-09-29T12:47:36.054Z,16.1
2022-09-29T12:48:36.190Z,16.1
2022-09-29T12:49:36.343Z,16.1
2022-09-29T12:50:36.477Z,16.1
2022-09-29T12:51:36.611Z,16.1
2022-09-29T12:52:36.734Z,16.1
2022-09-29T12:53:36.877Z,16.1
2022-09-29T12:54:37.002Z,16.1
2022-09-29T12:55:37.133Z,15.7
2022-09-29T12:56:37.269Z,15.7
2022-09-29T12:57:37.402Z,15.7
2022-09-29T12:58:37.528Z,15.7
2022-09-29T12:59:37.651Z,15.7
2022-09-29T13:00:37.781Z,15.7
2022-09-29T13:01:38.202Z,15.7
2022-09-29T13:02:38.528Z,15.7
2022-09-29T13:03:38.742Z,15.7
2022-09-29T13:04:38.866Z,15.7
2022-09-29T13:05:38.994Z,15.3
2022-09-29T13:06:39.124Z,15.3
2022-09-29T13:07:39.251Z,15.3
2022-09-29T13:08:39.375Z,15.3
2022-09-29T13:09:39.575Z,15.3
2022-09-29T13:10:39.775Z,15.3
2022-09-29T13:11:39.901Z,15.3
2022-09-29T13:12:40.027Z,15.3
2022-09-29T13:13:40.158Z,15.3
2022-09-29T13:14:40.285Z,15.3
2022-09-29T13:15:46.252Z,15
2022-09-29T13:16:46.785Z,15
2022-09-29T13:17:49.407Z,15
2022-09-29T13:19:18.542Z,15
2022-09-29T13:20:56.299Z,14.8
2022-09-29T13:21:56.424Z,14.8
2022-09-29T13:22:56.554Z,14.8
2022-09-29T13:23:56.702Z,14.8
2022-09-29T13:24:56.830Z,14.8
2022-09-29T13:25:56.970Z,14.7
2022-09-29T13:26:57.108Z,14.7
2022-09-29T13:27:57.255Z,14.7
2022-09-29T13:28:57.395Z,14.7
2022-09-29T13:29:57.536Z,14.7
2022-09-29T13:30:57.746Z,14.7
2022-09-29T13:31:57.995Z,14.7
2022-09-29T13:32:58.130Z,14.7
2022-09-29T13:33:58.254Z,14.7
2022-09-29T13:34:58.380Z,14.7
2022-09-29T13:35:58.506Z,14.2
2022-09-29T13:36:58.632Z,14.2
2022-09-29T13:37:58.757Z,14.2
2022-09-29T13:38:58.882Z,14.2
2022-09-29T13:40:04.585Z,14.2
2022-09-29T13:41:11.614Z,14
2022-09-29T13:42:11.752Z,14
2022-09-29T13:43:11.889Z,14
2022-09-29T13:44:12.035Z,14
2022-09-29T13:45:12.170Z,13.8
2022-09-29T13:46:12.362Z,13.8
2022-09-29T13:47:12.551Z,13.8
2022-09-29T13:48:12.679Z,13.8
2022-09-29T13:49:12.808Z,13.8
2022-09-29T13:50:12.962Z,13.8
2022-09-29T13:51:13.120Z,13.8
2022-09-29T13:52:13.254Z,13.8
2022-09-29T13:53:13.388Z,13.8
2022-09-29T13:54:13.572Z,13.8
2022-09-29T13:55:13.775Z,13.4
2022-09-29T13:56:13.906Z,13.4
2022-09-29T13:57:14.030Z,13.4
2022-09-29T13:58:14.152Z,13.4
2022-09-29T13:59:14.280Z,13.4
2022-09-29T14:00:14.625Z,13.4